createdAt,value
2023-04-10T00:01:41.368Z,3.57
2023-04-10T00:04:10.039Z,3.45
2023-04-10T00:06:38.173Z,3.38
2023-04-10T00:09:06.520Z,3.25
2023-04-10T00:11:35.251Z,3.18
2023-04-10T00:14:03.678Z,3.10
2023-04-10T00:16:34.534Z,3.03
2023-04-10T00:19:03.210Z,2.98
2023-04-10T00:21:32.161Z,2.93
2023-04-10T00:24:02.366Z,2.89
2023-04-10T00:26:30.554Z,2.88
2023-04-10T00:28:58.685Z,2.88
2023-04-10T00:31:26.784Z,2.87
2023-04-10T00:33:56.531Z,2.90
2023-04-10T00:36:24.691Z,2.90
2023-04-10T00:38:54.657Z,2.89
2023-04-10T00:41:24.081Z,2.88
2023-04-10T00:43:57.592Z,2.86
2023-04-10T00:46:26.009Z,2.84
2023-04-10T00:48:57.546Z,2.80
2023-04-10T00:51:26.674Z,2.76
2023-04-10T00:53:56.144Z,2.71
2023-04-10T00:56:26.110Z,2.67
2023-04-10T00:58:56.724Z,2.63
2023-04-10T01:01:24.890Z,2.58
2023-04-10T01:03:54.321Z,2.51
2023-04-10T01:06:32.283Z,2.44
2023-04-10T01:09:06.764Z,2.38
2023-04-10T01:11:46.481Z,2.33
2023-04-10T01:14:24.868Z,2.27
2023-04-10T01:16:59.620Z,2.21
2023-04-10T01:19:51.630Z,2.17
2023-04-10T01:22:25.032Z,2.10
2023-04-10T01:25:13.067Z,2.05
2023-04-10T01:28:13.045Z,2.00
2023-04-10T01:30:44.448Z,1.96
2023-04-10T01:33:17.853Z,1.92
2023-04-10T01:35:51.299Z,1.86
2023-04-10T01:38:21.872Z,1.81
2023-04-10T01:40:54.843Z,1.74
2023-04-10T01:43:23.698Z,1.68
2023-04-10T01:45:54.083Z,1.56
2023-04-10T01:48:22.506Z,1.53
2023-04-10T01:50:51.914Z,1.47
2023-04-10T01:53:21.133Z,1.40
2023-04-10T01:55:50.524Z,1.34
2023-04-10T01:58:18.967Z,1.26
2023-04-10T02:00:47.223Z,1.22
2023-04-10T02:03:16.981Z,1.20
2023-04-10T02:06:02.521Z,1.17
2023-04-10T02:08:37.917Z,1.13
2023-04-10T02:11:14.601Z,1.06
2023-04-10T02:13:44.019Z,1.06
2023-04-10T02:16:17.628Z,1.01
2023-04-10T02:18:49.046Z,1.00
2023-04-10T02:21:17.611Z,0.97
2023-04-10T02:23:45.874Z,0.96
2023-04-10T02:26:14.157Z,0.95
2023-04-10T02:28:42.290Z,0.95
2023-04-10T02:31:10.647Z,0.92
2023-04-10T02:33:41.370Z,0.90
2023-04-10T02:36:11.174Z,0.87
2023-04-10T02:38:39.285Z,0.84
2023-04-10T02:41:07.834Z,0.83
2023-04-10T02:43:36.144Z,0.81
2023-04-10T02:46:04.218Z,0.76
2023-04-10T02:48:32.669Z,0.74
2023-04-10T02:51:00.872Z,0.71
2023-04-10T02:53:30.518Z,0.71
2023-04-10T02:55:58.709Z,0.68
2023-04-10T02:58:27.891Z,0.58
2023-04-10T03:00:56.732Z,0.55
2023-04-10T03:03:25.179Z,0.51
2023-04-10T03:05:54.325Z,0.49
2023-04-10T03:08:29.711Z,0.45
2023-04-10T03:10:59.278Z,0.37
2023-04-10T03:13:35.308Z,0.31
2023-04-10T03:16:03.922Z,0.27
2023-04-10T03:18:34.356Z,0.24
2023-04-10T03:21:05.546Z,0.20
2023-04-10T03:23:33.691Z,0.16
2023-04-10T03:26:04.733Z,0.10
2023-04-10T03:28:33.787Z,0.06
2023-04-10T03:31:02.844Z,0.02
2023-04-10T03:33:31.477Z,-0.03
2023-04-10T03:35:59.766Z,-0.11
2023-04-10T03:38:27.963Z,-0.13
2023-04-10T03:40:56.270Z,-0.13
2023-04-10T03:43:26.700Z,-0.13
2023-04-10T03:45:54.838Z,-0.14
2023-04-10T03:48:28.366Z,-0.13
2023-04-10T03:50:57.163Z,-0.10
2023-04-10T03:53:25.760Z,-0.11
2023-04-10T03:55:53.964Z,-0.12
2023-04-10T03:58:22.200Z,-0.12
2023-04-10T04:00:52.385Z,-0.15
2023-04-10T04:03:20.679Z,-0.18
2023-04-10T04:05:50.493Z,-0.17
2023-04-10T04:08:18.708Z,-0.19
2023-04-10T04:10:46.957Z,-0.15
2023-04-10T04:13:15.043Z,-0.15
2023-04-10T04:15:51.436Z,-0.14
2023-04-10T04:18:21.423Z,-0.14
2023-04-10T04:20:53.476Z,-0.15
2023-04-10T04:23:21.667Z,-0.13
2023-04-10T04:25:52.901Z,-0.14
2023-04-10T04:28:21.196Z,-0.15
2023-04-10T04:30:49.264Z,-0.14
2023-04-10T04:33:17.350Z,-0.09
2023-04-10T04:35:47.029Z,-0.05
2023-04-10T04:38:16.809Z,0.00
2023-04-10T04:40:45.021Z,0.05
2023-04-10T04:43:13.214Z,0.09
2023-04-10T04:45:41.405Z,0.14
2023-04-10T04:48:09.528Z,0.20
2023-04-10T04:50:46.693Z,0.24
2023-04-10T04:53:15.118Z,0.28
2023-04-10T04:55:43.244Z,0.29
2023-04-10T04:58:11.413Z,0.33
2023-04-10T05:00:39.607Z,0.40
2023-04-10T05:03:08.106Z,0.47
2023-04-10T05:05:36.474Z,0.54
2023-04-10T05:08:06.180Z,0.62
2023-04-10T05:10:34.370Z,0.70
2023-04-10T05:13:05.254Z,0.77
2023-04-10T05:15:33.892Z,0.87
2023-04-10T05:18:02.492Z,0.97
2023-04-10T05:20:35.943Z,1.05
2023-04-10T05:23:14.422Z,1.14
2023-04-10T05:25:42.664Z,1.22
2023-04-10T05:28:10.740Z,1.35
2023-04-10T05:30:38.941Z,1.48
2023-04-10T05:33:07.706Z,1.59
2023-04-10T05:35:36.602Z,1.73
2023-04-10T05:38:04.806Z,1.85
2023-04-10T05:40:34.431Z,1.98
2023-04-10T05:43:02.708Z,2.10
2023-04-10T05:45:31.015Z,2.24
2023-04-10T05:47:59.295Z,2.36
2023-04-10T05:50:29.220Z,2.48
2023-04-10T05:52:58.583Z,2.59
2023-04-10T05:55:26.869Z,2.72
2023-04-10T05:57:56.553Z,2.86
2023-04-10T06:00:24.903Z,2.98
2023-04-10T06:02:53.380Z,3.10
2023-04-10T06:05:21.930Z,3.25
2023-04-10T06:07:50.196Z,3.35
2023-04-10T06:10:18.397Z,3.52
2023-04-10T06:12:46.825Z,3.68
2023-04-10T06:15:16.822Z,3.79
2023-04-10T06:17:49.004Z,3.89
2023-04-10T06:20:17.131Z,4.01
2023-04-10T06:22:45.417Z,4.09
2023-04-10T06:25:15.997Z,4.21
2023-04-10T06:27:44.224Z,4.36
2023-04-10T06:30:12.520Z,4.52
2023-04-10T06:32:42.381Z,4.69
2023-04-10T06:35:11.652Z,4.84
2023-04-10T06:37:40.136Z,4.96
2023-04-10T06:40:10.136Z,5.11
2023-04-10T06:42:40.247Z,5.26
2023-04-10T06:45:09.843Z,5.36
2023-04-10T06:47:38.294Z,5.44
2023-04-10T06:50:08.373Z,5.55
2023-04-10T06:52:36.551Z,5.62
2023-04-10T06:55:05.084Z,5.74
2023-04-10T06:57:33.158Z,5.86
2023-04-10T07:00:01.360Z,5.98
2023-04-10T07:02:29.769Z,6.05
2023-04-10T07:04:58.143Z,6.17
2023-04-10T07:07:28.834Z,6.26
2023-04-10T07:09:58.067Z,6.33
2023-04-10T07:12:27.025Z,6.42
2023-04-10T07:14:55.664Z,6.57
2023-04-10T07:17:25.538Z,6.66
2023-04-10T07:19:53.699Z,6.77
2023-04-10T07:22:21.950Z,6.88
2023-04-10T07:24:51.583Z,6.99
2023-04-10T07:27:20.885Z,7.10
2023-04-10T07:29:49.114Z,7.22
2023-04-10T07:32:18.900Z,7.34
2023-04-10T07:34:49.292Z,7.44
2023-04-10T07:37:18.190Z,7.55
2023-04-10T07:39:46.453Z,7.61
2023-04-10T07:42:16.041Z,7.70
2023-04-10T07:44:44.271Z,7.82
2023-04-10T07:47:13.635Z,7.95
2023-04-10T07:49:42.610Z,8.08
2023-04-10T07:52:10.959Z,8.25
2023-04-10T07:54:39.300Z,8.41
2023-04-10T07:57:07.447Z,8.57
2023-04-10T07:59:43.193Z,8.73
2023-04-10T08:02:11.583Z,8.89
2023-04-10T08:04:40.424Z,9.05
2023-04-10T08:07:08.665Z,9.17
2023-04-10T08:09:39.528Z,9.31
2023-04-10T08:12:07.758Z,9.43
2023-04-10T08:14:38.607Z,9.48
2023-04-10T08:17:07.227Z,9.57
2023-04-10T08:19:36.362Z,9.65
2023-04-10T08:22:04.923Z,9.75
2023-04-10T08:24:33.085Z,9.82
2023-04-10T08:27:03.524Z,9.92
2023-04-10T08:29:31.748Z,10.00
2023-04-10T08:32:01.750Z,10.15
2023-04-10T08:34:29.864Z,10.22
2023-04-10T08:36:58.645Z,10.31
2023-04-10T08:39:26.997Z,10.42
2023-04-10T08:41:55.519Z,10.53
2023-04-10T08:44:23.795Z,10.67
2023-04-10T08:46:53.795Z,10.77
2023-04-10T08:49:31.734Z,10.89
2023-04-10T08:52:03.401Z,11.01
2023-04-10T08:54:35.428Z,11.07
2023-04-10T08:57:04.869Z,11.14
2023-04-10T08:59:41.786Z,11.23
2023-04-10T09:02:11.500Z,11.23
2023-04-10T09:04:41.354Z,11.30
2023-04-10T09:07:09.652Z,11.45
2023-04-10T09:09:39.616Z,11.58
2023-04-10T09:12:10.503Z,11.67
2023-04-10T09:14:39.936Z,11.76
2023-04-10T09:17:17.221Z,11.77
2023-04-10T09:19:48.012Z,11.71
2023-04-10T09:22:16.964Z,11.72
2023-04-10T09:24:46.751Z,11.80
2023-04-10T09:27:29.660Z,11.85
2023-04-10T09:29:58.083Z,11.85
2023-04-10T09:32:40.907Z,11.92
2023-04-10T09:35:11.581Z,11.98
2023-04-10T09:37:47.166Z,11.99
2023-04-10T09:40:23.148Z,11.98
2023-04-10T09:42:51.609Z,12.00
2023-04-10T09:45:20.938Z,12.06
2023-04-10T09:48:03.685Z,12.14
2023-04-10T09:50:41.021Z,12.22
2023-04-10T09:53:10.513Z,12.29
2023-04-10T09:55:39.346Z,12.43
2023-04-10T09:58:08.200Z,12.49
2023-04-10T10:00:47.698Z,12.58
2023-04-10T10:03:19.695Z,12.63
2023-04-10T10:05:50.981Z,12.71
2023-04-10T10:08:19.659Z,12.68
2023-04-10T10:10:49.718Z,12.73
2023-04-10T10:13:22.430Z,12.77
2023-04-10T10:15:57.505Z,12.79
2023-04-10T10:18:32.673Z,12.79
2023-04-10T10:21:03.795Z,12.77
2023-04-10T10:23:34.628Z,12.80
2023-04-10T10:26:06.678Z,12.86
2023-04-10T10:28:38.250Z,12.94
2023-04-10T10:31:07.194Z,13.02
2023-04-10T10:33:37.548Z,13.04
2023-04-10T10:36:08.494Z,13.07
2023-04-10T10:38:41.579Z,13.05
2023-04-10T10:41:18.040Z,13.03
2023-04-10T10:43:55.817Z,13.03
2023-04-10T10:46:34.208Z,13.06
2023-04-10T10:49:02.580Z,13.02
2023-04-10T10:51:48.199Z,13.07
2023-04-10T10:54:33.169Z,13.10
2023-04-10T10:57:03.005Z,13.15
2023-04-10T10:59:57.039Z,13.14
2023-04-10T11:02:38.497Z,13.08
2023-04-10T11:05:07.366Z,13.03
2023-04-10T11:08:12.707Z,12.99
2023-04-10T11:11:02.952Z,12.90
2023-04-10T11:13:33.621Z,12.87
2023-04-10T11:16:03.360Z,12.80
2023-04-10T11:19:14.736Z,12.74
2023-04-10T11:22:06.412Z,12.70
2023-04-10T11:24:59.125Z,12.70
2023-04-10T11:27:41.195Z,12.70
2023-04-10T11:30:29.519Z,12.70
2023-04-10T11:32:58.241Z,12.73
2023-04-10T11:35:27.383Z,12.80
2023-04-10T11:38:13.092Z,12.89
2023-04-10T11:41:07.043Z,12.93
2023-04-10T11:43:36.305Z,13.02
2023-04-10T11:46:07.613Z,13.03
2023-04-10T11:48:37.124Z,13.05
2023-04-10T11:51:09.419Z,13.08
2023-04-10T11:53:37.687Z,13.12
2023-04-10T11:56:08.843Z,13.18
2023-04-10T11:58:40.878Z,13.25
2023-04-10T12:01:14.328Z,13.29
2023-04-10T12:03:44.825Z,13.32
2023-04-10T12:06:14.574Z,13.34
2023-04-10T12:08:45.387Z,13.38
2023-04-10T12:11:16.139Z,13.40
2023-04-10T12:13:44.629Z,13.39
2023-04-10T12:16:14.064Z,13.38
2023-04-10T12:18:43.528Z,13.40
2023-04-10T12:21:12.064Z,13.44
2023-04-10T12:23:40.824Z,13.45
2023-04-10T12:26:12.255Z,13.47
2023-04-10T12:28:43.560Z,13.51
2023-04-10T12:31:11.850Z,13.59
2023-04-10T12:33:41.097Z,13.61
2023-04-10T12:36:22.762Z,13.62
2023-04-10T12:38:50.959Z,13.66
2023-04-10T12:41:24.317Z,13.66
2023-04-10T12:43:54.908Z,13.67
2023-04-10T12:46:28.017Z,13.65
2023-04-10T12:48:57.092Z,13.58
2023-04-10T12:51:47.614Z,13.53
2023-04-10T12:54:35.018Z,13.55
2023-04-10T12:57:04.763Z,13.57
2023-04-10T12:59:34.677Z,13.53
2023-04-10T13:02:02.951Z,13.52
2023-04-10T13:04:32.918Z,13.51
2023-04-10T13:07:01.869Z,13.53
2023-04-10T13:09:30.092Z,13.56
2023-04-10T13:12:00.180Z,13.51
2023-04-10T13:14:28.448Z,13.58
2023-04-10T13:16:58.053Z,13.65
2023-04-10T13:19:28.450Z,13.66
2023-04-10T13:21:57.026Z,13.65
2023-04-10T13:24:25.406Z,13.57
2023-04-10T13:26:53.723Z,13.53
2023-04-10T13:29:21.886Z,13.53
2023-04-10T13:31:52.965Z,13.51
2023-04-10T13:34:22.649Z,13.51
2023-04-10T13:36:51.102Z,13.50
2023-04-10T13:39:19.455Z,13.53
2023-04-10T13:41:47.732Z,13.55
2023-04-10T13:44:16.052Z,13.59
2023-04-10T13:46:48.481Z,13.60
2023-04-10T13:49:18.039Z,13.54
2023-04-10T13:51:51.048Z,13.54
2023-04-10T13:54:20.208Z,13.53
2023-04-10T13:56:48.596Z,13.56
2023-04-10T13:59:16.806Z,13.59
2023-04-10T14:01:45.593Z,13.56
2023-04-10T14:04:21.653Z,13.60
2023-04-10T14:06:53.157Z,13.66
2023-04-10T14:09:21.489Z,13.71
2023-04-10T14:12:00.612Z,13.78
2023-04-10T14:14:28.867Z,13.77
2023-04-10T14:16:59.483Z,13.81
2023-04-10T14:19:27.605Z,13.83
2023-04-10T14:21:57.248Z,13.74
2023-04-10T14:24:25.457Z,13.69
2023-04-10T14:27:01.596Z,13.62
2023-04-10T14:32:01.842Z,13.55
2023-04-10T14:34:30.097Z,13.51
2023-04-10T14:37:05.899Z,13.36
2023-04-10T14:39:37.364Z,13.25
2023-04-10T14:42:34.273Z,13.22
2023-04-10T14:45:13.581Z,13.25
2023-04-10T14:47:45.021Z,13.21
2023-04-10T14:50:16.010Z,13.24
2023-04-10T14:52:49.980Z,13.30
2023-04-10T14:55:26.441Z,13.20
2023-04-10T14:58:18.039Z,13.16
2023-04-10T15:00:46.322Z,13.11
2023-04-10T15:03:14.847Z,13.17
2023-04-10T15:05:51.089Z,13.14
2023-04-10T15:08:20.862Z,13.10
2023-04-10T15:10:53.129Z,13.03
2023-04-10T15:13:22.710Z,12.97
2023-04-10T15:15:51.437Z,12.95
2023-04-10T15:18:21.046Z,12.94
2023-04-10T15:20:49.344Z,12.90
2023-04-10T15:23:24.340Z,12.95
2023-04-10T15:26:13.716Z,12.96
2023-04-10T15:29:21.814Z,12.93
2023-04-10T15:31:47.903Z,12.96
2023-04-10T15:34:20.016Z,12.98
2023-04-10T15:36:48.257Z,13.05
2023-04-10T15:39:16.568Z,13.51
2023-04-10T15:41:48.399Z,14.48
2023-04-10T15:44:41.374Z,15.49
2023-04-10T15:47:13.853Z,15.66
2023-04-10T15:49:42.136Z,15.81
2023-04-10T15:52:10.237Z,15.81
2023-04-10T15:54:42.765Z,15.82
2023-04-10T15:57:19.252Z,16.08
2023-04-10T16:00:13.535Z,16.58
2023-04-10T16:02:41.943Z,16.85
2023-04-10T16:05:14.269Z,17.09
2023-04-10T16:07:44.048Z,17.48
2023-04-10T16:10:12.681Z,17.63
2023-04-10T16:12:42.476Z,17.61
2023-04-10T16:15:12.195Z,17.23
2023-04-10T16:17:40.716Z,16.78
2023-04-10T16:20:14.531Z,16.33
2023-04-10T16:22:54.393Z,16.03
2023-04-10T16:25:34.108Z,15.74
2023-04-10T16:28:30.388Z,15.39
2023-04-10T16:32:06.758Z,15.24
2023-04-10T16:33:55.903Z,15.36
2023-04-10T16:36:46.502Z,15.36
2023-04-10T16:39:33.728Z,15.13
2023-04-10T16:42:03.608Z,14.96
2023-04-10T16:44:37.578Z,14.70
2023-04-10T16:47:05.902Z,14.37
2023-04-10T16:49:34.101Z,13.97
2023-04-10T16:52:02.251Z,13.72
2023-04-10T16:54:40.435Z,13.66
2023-04-10T16:57:08.640Z,13.52
2023-04-10T16:59:46.088Z,13.20
2023-04-10T17:02:14.343Z,12.80
2023-04-10T17:04:42.650Z,12.42
2023-04-10T17:07:12.086Z,12.05
2023-04-10T17:09:40.237Z,11.73
2023-04-10T17:12:08.740Z,11.51
2023-04-10T17:14:39.545Z,11.25
2023-04-10T17:17:09.465Z,11.00
2023-04-10T17:19:38.725Z,10.81
2023-04-10T17:22:15.634Z,10.60
2023-04-10T17:24:45.265Z,10.40
2023-04-10T17:27:13.474Z,10.21
2023-04-10T17:29:42.020Z,10.04
2023-04-10T17:32:11.854Z,9.88
2023-04-10T17:34:42.485Z,9.69
2023-04-10T17:37:10.937Z,9.49
2023-04-10T17:39:41.394Z,9.34
2023-04-10T17:42:09.959Z,9.18
2023-04-10T17:44:40.361Z,9.02
2023-04-10T17:47:08.461Z,8.90
2023-04-10T17:49:43.056Z,8.74
2023-04-10T17:52:11.225Z,8.67
2023-04-10T17:54:39.397Z,8.58
2023-04-10T17:57:07.724Z,8.48
2023-04-10T17:59:41.490Z,8.35
2023-04-10T18:02:12.267Z,8.22
2023-04-10T18:04:41.944Z,8.16
2023-04-10T18:07:10.089Z,8.08
2023-04-10T18:09:38.776Z,7.98
2023-04-10T18:12:06.908Z,7.90
2023-04-10T18:14:37.158Z,7.85
2023-04-10T18:17:06.973Z,7.75
2023-04-10T18:19:35.082Z,7.67
2023-04-10T18:22:04.637Z,7.59
2023-04-10T18:24:36.580Z,7.53
2023-04-10T18:27:04.881Z,7.45
2023-04-10T18:29:33.428Z,7.35
2023-04-10T18:32:01.797Z,7.28
2023-04-10T18:34:37.961Z,7.19
2023-04-10T18:37:09.667Z,7.12
2023-04-10T18:39:38.797Z,7.03
2023-04-10T18:42:11.187Z,6.94
2023-04-10T18:44:42.999Z,6.89
2023-04-10T18:47:11.799Z,6.82
2023-04-10T18:49:44.322Z,6.76
2023-04-10T18:52:36.695Z,6.72
2023-04-10T18:55:02.926Z,6.66
2023-04-10T18:57:31.307Z,6.61
2023-04-10T19:00:10.012Z,6.54
2023-04-10T19:02:39.236Z,6.46
2023-04-10T19:05:08.700Z,6.38
2023-04-10T19:08:00.775Z,6.33
2023-04-10T19:10:54.917Z,6.22
2023-04-10T19:13:21.127Z,6.20
2023-04-10T19:15:50.086Z,6.12
2023-04-10T19:18:19.841Z,6.04
2023-04-10T19:20:52.962Z,6.00
2023-04-10T19:23:23.224Z,5.97
2023-04-10T19:25:54.262Z,5.92
2023-04-10T19:28:24.579Z,5.85
2023-04-10T19:30:53.116Z,5.78
2023-04-10T19:33:21.547Z,5.74
2023-04-10T19:35:59.221Z,5.69
2023-04-10T19:38:30.787Z,5.65
2023-04-10T19:40:59.077Z,5.63
2023-04-10T19:43:27.377Z,5.59
2023-04-10T19:45:58.745Z,5.56
2023-04-10T19:48:27.783Z,5.53
2023-04-10T19:50:59.365Z,5.50
2023-04-10T19:53:29.361Z,5.46
2023-04-10T19:55:57.684Z,5.45
2023-04-10T20:01:03.770Z,5.38
2023-04-10T20:03:33.062Z,5.35
2023-04-10T20:06:01.722Z,5.36
2023-04-10T20:08:31.616Z,5.33
2023-04-10T20:10:59.888Z,5.30
2023-04-10T20:13:27.979Z,5.27
2023-04-10T20:15:59.119Z,5.24
2023-04-10T20:18:28.565Z,5.20
2023-04-10T20:20:56.939Z,5.18
2023-04-10T20:23:25.029Z,5.15
2023-04-10T20:25:54.789Z,5.13
2023-04-10T20:28:22.956Z,5.08
2023-04-10T20:31:00.218Z,5.06
2023-04-10T20:33:28.422Z,5.01
2023-04-10T20:35:56.660Z,4.98
2023-04-10T20:38:24.837Z,4.92
2023-04-10T20:41:04.884Z,4.91
2023-04-10T20:43:33.219Z,4.87
2023-04-10T20:46:05.459Z,4.85
2023-04-10T20:48:33.764Z,4.82
2023-04-10T20:51:01.886Z,4.80
2023-04-10T20:53:30.349Z,4.77
2023-04-10T20:55:58.521Z,4.74
2023-04-10T20:58:29.379Z,4.72
2023-04-10T21:01:01.024Z,4.71
2023-04-10T21:03:29.379Z,4.71
2023-04-10T21:05:57.914Z,4.69
2023-04-10T21:08:26.238Z,4.68
2023-04-10T21:10:56.439Z,4.68
2023-04-10T21:13:24.644Z,4.66
2023-04-10T21:15:54.254Z,4.66
2023-04-10T21:18:24.004Z,4.64
2023-04-10T21:21:04.198Z,4.60
2023-04-10T21:23:32.492Z,4.57
2023-04-10T21:26:01.634Z,4.53
2023-04-10T21:28:29.889Z,4.51
2023-04-10T21:30:59.628Z,4.50
2023-04-10T21:33:27.909Z,4.46
2023-04-10T21:35:57.524Z,4.45
2023-04-10T21:38:26.529Z,4.44
2023-04-10T21:40:55.700Z,4.42
2023-04-10T21:43:24.142Z,4.40
2023-04-10T21:45:52.466Z,4.39
2023-04-10T21:48:22.093Z,4.34
2023-04-10T21:50:51.560Z,4.33
2023-04-10T21:53:19.738Z,4.31
2023-04-10T21:55:54.388Z,4.27
2023-04-10T21:58:22.535Z,4.23
2023-04-10T22:00:51.917Z,4.19
2023-04-10T22:03:22.385Z,4.18
2023-04-10T22:05:50.710Z,4.15
2023-04-10T22:08:20.330Z,4.15
2023-04-10T22:10:49.073Z,4.13
2023-04-10T22:13:29.741Z,4.09
2023-04-10T22:16:02.391Z,4.08
2023-04-10T22:18:34.039Z,4.04
2023-04-10T22:21:02.178Z,3.98
2023-04-10T22:23:30.543Z,3.96
2023-04-10T22:26:00.921Z,3.92
2023-04-10T22:28:29.219Z,3.90
2023-04-10T22:31:03.262Z,3.90
2023-04-10T22:33:34.717Z,3.88
2023-04-10T22:36:02.901Z,3.86
2023-04-10T22:38:31.539Z,3.85
2023-04-10T22:40:59.921Z,3.84
2023-04-10T22:43:34.683Z,3.82
2023-04-10T22:46:02.923Z,3.79
2023-04-10T22:48:31.176Z,3.80
2023-04-10T22:51:01.476Z,3.78
2023-04-10T22:53:30.074Z,3.76
2023-04-10T22:55:58.407Z,3.75
2023-04-10T22:58:26.509Z,3.70
2023-04-10T23:00:56.836Z,3.73
2023-04-10T23:03:25.187Z,3.71
2023-04-10T23:05:53.496Z,3.68
2023-04-10T23:08:23.552Z,3.66
2023-04-10T23:10:57.719Z,3.64
2023-04-10T23:13:25.957Z,3.62
2023-04-10T23:16:03.290Z,3.60
2023-04-10T23:18:31.527Z,3.57
2023-04-10T23:21:00.150Z,3.56
2023-04-10T23:23:29.726Z,3.52
2023-04-10T23:26:01.296Z,3.50
2023-04-10T23:28:29.704Z,3.47
2023-04-10T23:31:00.954Z,3.45
2023-04-10T23:33:29.319Z,3.43
2023-04-10T23:36:00.689Z,3.41
2023-04-10T23:38:31.023Z,3.38
2023-04-10T23:41:03.021Z,3.35
2023-04-10T23:43:40.155Z,3.33
2023-04-10T23:46:08.735Z,3.26
2023-04-10T23:48:36.871Z,3.25
2023-04-10T23:51:06.378Z,3.22
2023-04-10T23:53:36.383Z,3.20
2023-04-10T23:56:04.561Z,3.17
2023-04-10T23:58:32.788Z,3.15
